Williamston, NC

9:43 AM EDT on October 24, 2014 (GMT -0400)
Warren | Change Station
CLOSE
Current Station
Airport
Location: Washington,
Elevation: 39 ft
Nearby Weather Stations

Elev 39 ft 35.57 °N, 77.05 °W | Updated 8 minutes ago

Partly Cloudy
Partly Cloudy
51 °F
Feels Like 51 °F
N
0
Wind Variable Wind from North

Today
High -- | Low -- °F
--% Chance of Precip.
Yesterday
High -- | Low -- °F
Precip. -- in
7:22 AM 6:21 PM
New Moon, 0% visible
Pressure 30.03 in
Visibility 10.0 miles
Clouds Clear
Dew Point 46 °F
Humidity 83%
Rainfall 0.00 in
Snow Depth Not available.
UV 2 out of 12
Pollen 1.90 out of 12
Air Quality Not available.
Flu Activity Sporadic
METAR KOCW 241335Z AUTO 00000KT 10SM CLR 11/08 A3003 RMK AO2 T01060078

More Conditions Fewer Conditions

Pressure 30.03 in
Visibility 10.0 miles
Clouds Clear
Dew Point 46 °F
Humidity 83%
Rainfall 0.00 in
Snow Depth Not available.
UV 2 out of 12
Pollen 1.90 out of 12
Air Quality Not available.
Flu Activity Sporadic
METAR KOCW 241335Z AUTO 00000KT 10SM CLR 11/08 A3003 RMK AO2 T01060078

More Conditions Fewer Conditions

10-Day Weather Forecast

Almanac

Astronomy

Oct. 24, 2014 Rise Set
Actual Time 7:22 AM EDT 6:21 PM EDT
Civil Twilight 6:56 AM EDT 6:47 PM EDT
Nautical Twilight 6:26 AM EDT 7:17 PM EDT
Astronomical Twilight 5:57 AM EDT 7:47 PM EDT
Moon 7:58 AM EDT 7:01 PM EDT
Length of Visible Light 11h 50m
Length of Day
10h 58m
Tomorrow will be 2m 6s shorter.
New Moon, 0% of the Moon is Illuminated
Today
New Moon
Oct 30
First Quarter
Nov 6
Full
Nov 14
Last Quarter
Nov 22
New

Today's Extremes

State Highs State Lows

Community

WunderPhotos

Upload Photos

1,764,551 photos uploaded!

WunderBlogs® & News

Nearby

Snow Depth

Station Depth Elevation
No new snow has been reported.

Earthquake Activity

City Distance Mag. Time & Date
No recent earthquake activity has been reported nearby.
Minimum magnitude displayed is 2.5.

Coastal Water Temperatures

Place Temperature
No Stations Reporting

Nearby Weather Stations